Time;durP1;ratioP1;P1;durP2;ratioP2;P2;SDS_P1;SDS_P2;PMS_P1;PMS_P2;Temp;Humidity;BMP_temperature;BMP_pressure;BME280_temperature;BME280_humidity;BME280_pressure;Samples;Min_cycle;Max_cycle;Signal;HPM_P1;HPM_P2
2021/01/15 00:01:03;;;;;;;2.72;1.10;;;1.60;99.90;;;;;;5073228;28;21058;-53
2021/01/15 00:03:33;;;;;;;1.60;1.05;;;1.40;99.90;;;;;;5072417;28;20778;-55
2021/01/15 00:06:05;;;;;;;2.55;1.00;;;1.30;99.90;;;;;;5073268;28;20856;-54
2021/01/15 00:08:33;;;;;;;2.45;1.20;;;1.30;99.90;;;;;;5073575;28;20458;-51
2021/01/15 00:10:59;;;;;;;2.20;1.00;;;1.30;99.90;;;;;;5073452;28;20858;-53
2021/01/15 00:13:25;;;;;;;4.10;1.20;;;1.20;99.90;;;;;;5072978;28;20424;-56
2021/01/15 00:15:52;;;;;;;3.53;1.07;;;1.20;99.90;;;;;;5071862;28;20534;-52
2021/01/15 00:18:18;;;;;;;2.92;1.15;;;1.20;99.90;;;;;;5071969;28;20484;-55
2021/01/15 00:20:45;;;;;;;2.03;1.10;;;1.30;99.90;;;;;;5072011;28;20419;-54
2021/01/15 00:23:12;;;;;;;2.60;1.00;;;1.20;99.90;;;;;;5072364;28;20435;-55
2021/01/15 00:25:39;;;;;;;2.65;1.10;;;1.20;99.90;;;;;;5071349;28;20421;-55
2021/01/15 00:28:06;;;;;;;2.05;1.10;;;1.30;99.90;;;;;;5071336;28;20427;-54
2021/01/15 00:30:32;;;;;;;2.40;1.10;;;1.40;99.90;;;;;;5072549;28;20710;-51
2021/01/15 00:32:58;;;;;;;2.05;0.90;;;1.40;99.90;;;;;;5071422;28;20416;-55
2021/01/15 00:35:25;;;;;;;2.40;1.00;;;1.40;99.90;;;;;;5070979;28;20478;-54
2021/01/15 00:37:51;;;;;;;2.30;0.98;;;1.50;99.90;;;;;;5068564;28;20781;-53
2021/01/15 00:40:17;;;;;;;2.42;0.90;;;1.50;99.90;;;;;;5070784;28;20480;-53
2021/01/15 00:42:45;;;;;;;3.40;0.90;;;1.40;99.90;;;;;;5070744;28;20431;-53
2021/01/15 00:45:16;;;;;;;2.70;1.00;;;1.30;99.90;;;;;;5070445;28;20419;-56
2021/01/15 00:47:43;;;;;;;1.80;1.00;;;1.20;99.90;;;;;;5070535;28;20743;-48
2021/01/15 00:50:10;;;;;;;2.00;0.90;;;1.10;99.90;;;;;;5069889;28;20746;-55
2021/01/15 00:52:36;;;;;;;2.20;1.00;;;1.20;99.90;;;;;;5073494;28;20418;-53
2021/01/15 00:55:04;;;;;;;1.80;0.90;;;1.30;99.90;;;;;;5076038;28;20471;-53
2021/01/15 00:57:30;;;;;;;2.10;0.80;;;1.30;99.90;;;;;;5076007;28;20428;-54
2021/01/15 00:59:57;;;;;;;2.10;0.80;;;1.20;99.90;;;;;;5074541;28;20423;-52
2021/01/15 01:02:24;;;;;;;1.65;0.80;;;1.30;99.90;;;;;;5073992;28;20853;-56
2021/01/15 01:04:51;;;;;;;2.30;0.90;;;1.40;99.90;;;;;;5075212;28;20423;-55
2021/01/15 01:07:18;;;;;;;1.20;0.80;;;1.40;99.90;;;;;;5075342;28;20615;-54
2021/01/15 01:09:44;;;;;;;1.60;0.80;;;1.30;99.90;;;;;;5075531;28;20441;-53
2021/01/15 01:12:10;;;;;;;1.58;0.70;;;1.20;99.90;;;;;;5074865;28;20419;-48
2021/01/15 01:14:36;;;;;;;2.72;0.70;;;1.20;99.90;;;;;;5073115;28;20450;-51
2021/01/15 01:17:04;;;;;;;1.40;0.70;;;1.40;99.90;;;;;;5073563;28;20419;-53
2021/01/15 01:19:30;;;;;;;1.20;0.60;;;1.40;99.90;;;;;;5074174;28;20427;-55
2021/01/15 01:21:56;;;;;;;1.10;0.63;;;1.30;99.90;;;;;;5075200;28;20415;-54
2021/01/15 01:24:23;;;;;;;1.30;0.70;;;1.20;99.90;;;;;;5075286;28;20431;-53
2021/01/15 01:26:49;;;;;;;1.20;0.70;;;1.20;99.90;;;;;;5075236;28;20420;-55
2021/01/15 01:29:15;;;;;;;1.60;0.60;;;1.10;99.90;;;;;;5075219;28;20435;-54
2021/01/15 01:31:41;;;;;;;1.50;0.70;;;1.00;99.90;;;;;;5076758;28;20432;-55
2021/01/15 01:34:09;;;;;;;1.00;0.70;;;1.10;99.90;;;;;;5076231;28;20430;-55
2021/01/15 01:36:35;;;;;;;1.30;0.63;;;1.30;99.90;;;;;;5076003;28;20884;-52
2021/01/15 01:39:01;;;;;;;0.93;0.70;;;1.50;99.90;;;;;;5076461;28;20677;-56
2021/01/15 01:41:27;;;;;;;1.05;0.60;;;1.50;99.90;;;;;;5075419;28;20419;-56
2021/01/15 01:43:54;;;;;;;1.20;0.60;;;1.40;99.90;;;;;;5075497;28;20439;-56
2021/01/15 01:46:22;;;;;;;1.60;0.60;;;1.40;99.90;;;;;;5075309;28;20435;-55
2021/01/15 01:48:48;;;;;;;1.33;0.60;;;1.30;99.90;;;;;;5075063;28;20727;-55
2021/01/15 01:51:18;;;;;;;2.10;0.60;;;1.20;99.90;;;;;;5076211;28;20423;-55
2021/01/15 01:53:45;;;;;;;1.00;0.60;;;1.10;99.90;;;;;;5074518;28;20887;-55
2021/01/15 01:56:11;;;;;;;1.30;0.70;;;1.10;99.90;;;;;;5074283;28;20506;-54
2021/01/15 01:58:38;;;;;;;1.00;0.50;;;1.20;99.90;;;;;;5073029;28;20467;-55
2021/01/15 02:01:06;;;;;;;1.00;0.60;;;1.30;99.90;;;;;;5072493;28;20419;-54
2021/01/15 02:03:32;;;;;;;0.88;0.50;;;1.40;99.90;;;;;;5072708;28;20505;-50
2021/01/15 02:05:59;;;;;;;0.90;0.60;;;1.50;99.90;;;;;;5073387;28;20429;-51
2021/01/15 02:08:28;;;;;;;1.20;0.50;;;1.50;99.90;;;;;;5074887;28;20453;-51
2021/01/15 02:11:07;;;;;;;0.85;0.50;;;1.40;99.90;;;;;;5075957;28;20724;-56
2021/01/15 02:13:40;;;;;;;0.90;0.60;;;1.30;99.90;;;;;;5074685;28;20427;-52
2021/01/15 02:16:10;;;;;;;1.20;0.52;;;1.30;99.90;;;;;;5074481;28;20439;-55
2021/01/15 02:18:41;;;;;;;1.98;0.60;;;1.30;99.90;;;;;;5074871;28;20514;-53
2021/01/15 02:21:39;;;;;;;1.80;0.50;;;1.30;99.90;;;;;;5074477;28;20419;-54
2021/01/15 02:24:17;;;;;;;0.98;0.60;;;1.10;99.90;;;;;;5074348;28;20480;-52
2021/01/15 02:27:02;;;;;;;0.80;0.50;;;1.10;99.90;;;;;;5074655;28;20501;-54
2021/01/15 02:29:31;;;;;;;1.00;0.50;;;1.20;99.90;;;;;;5072370;28;20431;-52
2021/01/15 02:32:26;;;;;;;1.00;0.60;;;1.10;99.90;;;;;;5073850;28;20419;-55
2021/01/15 02:35:16;;;;;;;0.90;0.57;;;0.90;99.90;;;;;;5072492;28;20427;-50
2021/01/15 02:37:58;;;;;;;1.30;0.50;;;0.80;99.90;;;;;;5068873;28;20710;-54
2021/01/15 02:40:30;;;;;;;1.75;0.50;;;0.80;99.90;;;;;;5070812;28;20423;-52
2021/01/15 02:42:58;;;;;;;1.00;0.50;;;0.90;99.90;;;;;;5070969;28;20688;-52
2021/01/15 02:45:24;;;;;;;0.70;0.50;;;0.90;99.90;;;;;;5070733;28;20426;-50
2021/01/15 02:47:53;;;;;;;1.00;0.60;;;0.90;99.90;;;;;;5070985;28;20483;-55
2021/01/15 02:50:22;;;;;;;0.80;0.50;;;0.90;99.90;;;;;;5071492;28;20422;-53
2021/01/15 02:52:48;;;;;;;1.30;0.50;;;0.80;99.90;;;;;;5072829;28;20418;-50
2021/01/15 02:55:15;;;;;;;0.70;0.50;;;0.70;99.90;;;;;;5072542;28;20900;-55
2021/01/15 02:57:42;;;;;;;0.90;0.50;;;0.70;99.90;;;;;;5072855;28;20416;-53
2021/01/15 03:00:11;;;;;;;0.90;0.50;;;0.70;99.90;;;;;;5072960;28;20415;-55
2021/01/15 03:02:48;;;;;;;1.20;0.60;;;0.70;99.90;;;;;;5072912;28;20439;-56
2021/01/15 03:05:20;;;;;;;0.80;0.50;;;0.80;99.90;;;;;;5073122;28;20423;-56
2021/01/15 03:07:46;;;;;;;0.80;0.50;;;1.00;99.90;;;;;;5074259;28;20427;-54
2021/01/15 03:10:14;;;;;;;0.90;0.50;;;1.10;99.90;;;;;;5075426;28;20449;-55
2021/01/15 03:12:43;;;;;;;1.10;0.52;;;1.20;99.90;;;;;;5075545;28;20548;-56
2021/01/15 03:15:11;;;;;;;0.82;0.60;;;1.20;99.90;;;;;;5073589;28;20514;-56
2021/01/15 03:17:43;;;;;;;0.70;0.50;;;1.10;99.90;;;;;;5074730;28;20727;-52
2021/01/15 03:20:10;;;;;;;0.70;0.50;;;0.90;99.90;;;;;;5073917;28;20416;-54
2021/01/15 03:22:39;;;;;;;1.00;0.60;;;0.70;99.90;;;;;;5074533;28;20895;-55
2021/01/15 03:25:07;;;;;;;1.10;0.60;;;0.60;99.90;;;;;;5075238;28;20438;-53
2021/01/15 03:27:43;;;;;;;1.23;0.60;;;0.50;99.90;;;;;;5074275;28;20437;-53
2021/01/15 03:30:11;;;;;;;1.00;0.60;;;0.60;99.90;;;;;;5074234;28;20419;-55
2021/01/15 03:32:37;;;;;;;1.00;0.45;;;0.60;99.90;;;;;;5074317;28;20696;-53
2021/01/15 03:35:06;;;;;;;0.90;0.50;;;0.60;99.90;;;;;;5074108;28;20720;-51
2021/01/15 03:37:32;;;;;;;1.20;0.60;;;0.70;99.90;;;;;;5074734;28;20420;-51
2021/01/15 03:39:59;;;;;;;1.00;0.60;;;0.80;99.90;;;;;;5073787;28;20435;-51
2021/01/15 03:42:26;;;;;;;0.90;0.60;;;0.80;99.90;;;;;;5074652;28;20431;-53
2021/01/15 03:44:52;;;;;;;0.90;0.53;;;0.90;99.90;;;;;;5074414;28;20424;-51
2021/01/15 03:47:18;;;;;;;0.90;0.60;;;1.00;99.90;;;;;;5073883;28;20434;-55
2021/01/15 03:49:44;;;;;;;1.48;0.65;;;0.80;99.90;;;;;;5074026;28;20430;-56
2021/01/15 03:52:11;;;;;;;0.80;0.50;;;0.80;99.90;;;;;;5074339;28;20843;-56
2021/01/15 03:54:37;;;;;;;1.50;0.60;;;0.90;99.90;;;;;;5073748;28;20427;-55
2021/01/15 03:57:05;;;;;;;0.90;0.60;;;1.00;99.90;;;;;;5073883;28;20424;-53
2021/01/15 03:59:31;;;;;;;0.90;0.50;;;1.00;99.90;;;;;;5074023;28;20845;-56
2021/01/15 04:01:57;;;;;;;0.80;0.50;;;0.90;99.90;;;;;;5073722;28;20420;-50
2021/01/15 04:04:24;;;;;;;1.90;0.60;;;0.70;99.90;;;;;;5074351;28;20450;-51
2021/01/15 04:06:50;;;;;;;0.90;0.50;;;0.70;99.90;;;;;;5073767;28;20514;-54
2021/01/15 04:09:16;;;;;;;1.20;0.50;;;0.60;99.90;;;;;;5073734;28;20434;-50
2021/01/15 04:11:43;;;;;;;1.60;0.70;;;0.50;99.90;;;;;;5074048;28;20424;-54
2021/01/15 04:14:10;;;;;;;1.15;0.50;;;0.40;99.90;;;;;;5074588;28;20514;-51
2021/01/15 04:16:36;;;;;;;1.40;0.60;;;0.40;99.90;;;;;;5073796;28;20420;-55
2021/01/15 04:19:02;;;;;;;0.90;0.60;;;0.50;99.90;;;;;;5073341;28;20434;-55
2021/01/15 04:21:29;;;;;;;1.00;0.60;;;0.50;99.90;;;;;;5074000;28;20534;-53
2021/01/15 04:23:55;;;;;;;1.35;0.70;;;0.50;99.90;;;;;;5073611;28;20478;-55
2021/01/15 04:26:21;;;;;;;1.48;0.68;;;0.50;99.90;;;;;;5072818;28;20488;-53
2021/01/15 04:28:49;;;;;;;1.40;0.60;;;0.40;99.90;;;;;;5073430;28;20440;-56
2021/01/15 04:31:17;;;;;;;2.50;0.70;;;0.30;99.90;;;;;;5073636;28;20420;-55
2021/01/15 04:33:44;;;;;;;1.00;0.60;;;0.30;99.90;;;;;;5074477;28;20426;-52
2021/01/15 04:36:11;;;;;;;1.20;0.70;;;0.30;99.90;;;;;;5072947;28;20720;-51
2021/01/15 04:38:39;;;;;;;0.98;0.70;;;0.40;99.90;;;;;;5073501;28;20447;-55
2021/01/15 04:41:05;;;;;;;2.00;0.70;;;0.50;99.90;;;;;;5072917;28;20443;-56
2021/01/15 04:43:34;;;;;;;1.40;0.70;;;0.40;99.90;;;;;;5073321;28;20534;-56
2021/01/15 04:46:03;;;;;;;1.48;0.60;;;0.30;99.90;;;;;;5073430;28;20700;-55
2021/01/15 04:48:33;;;;;;;1.73;1.00;;;0.10;99.90;;;;;;5073124;28;20791;-55
2021/01/15 04:51:01;;;;;;;1.20;0.70;;;0.00;99.90;;;;;;5073546;28;20511;-55
2021/01/15 04:53:29;;;;;;;1.00;0.60;;;0.20;99.90;;;;;;5073421;28;20537;-49
2021/01/15 04:55:59;;;;;;;0.93;0.70;;;0.20;99.90;;;;;;5073049;28;20490;-57
2021/01/15 04:58:27;;;;;;;1.40;0.80;;;0.20;99.90;;;;;;5072252;28;20458;-51
2021/01/15 05:00:58;;;;;;;1.90;0.80;;;0.10;99.90;;;;;;5072824;28;20429;-52
2021/01/15 05:03:25;;;;;;;2.20;0.70;;;0.20;99.90;;;;;;5073174;28;20438;-56
2021/01/15 05:06:00;;;;;;;1.20;0.75;;;0.10;99.90;;;;;;5073419;28;20419;-50
2021/01/15 05:08:28;;;;;;;1.15;0.70;;;0.10;99.90;;;;;;5072314;28;20488;-51
2021/01/15 05:10:55;;;;;;;1.10;0.70;;;0.20;99.90;;;;;;5073577;28;20431;-51
2021/01/15 05:13:22;;;;;;;1.10;0.70;;;0.20;99.90;;;;;;5073260;28;20430;-53
2021/01/15 05:15:50;;;;;;;2.00;0.70;;;0.30;99.90;;;;;;5073255;28;20424;-54
2021/01/15 05:18:18;;;;;;;1.67;0.73;;;0.20;99.90;;;;;;5073422;28;20423;-54
2021/01/15 05:20:45;;;;;;;2.60;0.80;;;0.20;99.90;;;;;;5073572;28;20420;-52
2021/01/15 05:23:12;;;;;;;1.60;0.80;;;0.10;99.90;;;;;;5073310;28;20708;-54
2021/01/15 05:25:43;;;;;;;2.20;0.80;;;0.10;99.90;;;;;;5073367;28;20529;-53
2021/01/15 05:28:10;;;;;;;1.50;0.70;;;-0.10;99.90;;;;;;5072886;28;20492;-54
2021/01/15 05:30:40;;;;;;;2.03;0.70;;;0.00;99.90;;;;;;5072726;28;20411;-54
2021/01/15 05:33:12;;;;;;;1.60;0.63;;;0.10;99.90;;;;;;5072618;28;20420;-51
2021/01/15 05:35:46;;;;;;;1.20;0.70;;;0.30;99.90;;;;;;5073154;28;20436;-53
2021/01/15 05:38:18;;;;;;;1.30;0.70;;;0.10;99.90;;;;;;5073133;28;20901;-52
2021/01/15 05:40:46;;;;;;;1.30;0.70;;;0.00;99.90;;;;;;5075597;28;20416;-55
2021/01/15 05:43:23;;;;;;;1.55;0.80;;;0.00;99.90;;;;;;5075652;28;20419;-53
2021/01/15 05:46:08;;;;;;;1.40;0.80;;;-0.10;99.90;;;;;;5075184;28;20420;-52
2021/01/15 05:48:35;;;;;;;1.10;0.70;;;-0.20;99.90;;;;;;5075883;28;20423;-54
2021/01/15 05:51:02;;;;;;;1.67;0.70;;;-0.30;99.90;;;;;;5076218;28;20899;-55
2021/01/15 05:53:40;;;;;;;2.28;0.80;;;-0.30;99.90;;;;;;5076492;28;20435;-51
2021/01/15 05:56:07;;;;;;;0.97;0.70;;;-0.20;99.90;;;;;;5075925;28;20579;-54
2021/01/15 05:58:34;;;;;;;1.30;0.70;;;0.00;99.90;;;;;;5075590;28;20431;-53
2021/01/15 06:01:00;;;;;;;2.00;0.70;;;0.00;99.90;;;;;;5075076;28;20644;-54
2021/01/15 06:03:27;;;;;;;1.50;0.70;;;-0.10;99.90;;;;;;5074666;28;20435;-55
2021/01/15 06:05:55;;;;;;;0.90;0.60;;;-0.20;99.90;;;;;;5074426;28;20431;-55
2021/01/15 06:08:21;;;;;;;1.40;0.80;;;-0.30;99.90;;;;;;5074458;28;20433;-57
2021/01/15 06:10:49;;;;;;;1.10;0.70;;;-0.20;99.90;;;;;;5073831;28;20504;-55
2021/01/15 06:13:37;;;;;;;1.45;0.80;;;-0.30;99.90;;;;;;5077679;28;20428;-55
2021/01/15 06:16:05;;;;;;;2.10;0.80;;;-0.30;99.90;;;;;;5073802;28;20422;-56
2021/01/15 06:18:32;;;;;;;2.40;0.73;;;-0.20;99.90;;;;;;5074531;28;20508;-54
2021/01/15 06:21:08;;;;;;;2.70;0.70;;;-0.10;99.90;;;;;;5073203;28;20420;-57
2021/01/15 06:23:40;;;;;;;1.45;0.60;;;0.00;99.90;;;;;;5073300;28;20454;-57
2021/01/15 06:26:09;;;;;;;1.38;0.70;;;0.00;99.90;;;;;;5074128;28;20754;-56
2021/01/15 06:28:37;;;;;;;1.45;0.90;;;-0.20;99.90;;;;;;5073950;28;20818;-56
2021/01/15 06:31:07;;;;;;;2.30;0.80;;;-0.30;99.90;;;;;;5074664;28;20835;-56
2021/01/15 06:33:33;;;;;;;1.27;0.75;;;-0.30;99.90;;;;;;5076876;28;20431;-57
2021/01/15 06:36:00;;;;;;;2.20;0.90;;;-0.50;99.90;;;;;;5091726;28;20428;-57
2021/01/15 06:38:28;;;;;;;1.40;0.70;;;-0.70;99.90;;;;;;5082855;28;20508;-57
2021/01/15 06:40:55;;;;;;;1.00;0.63;;;-0.70;99.90;;;;;;5073149;28;20419;-57
2021/01/15 06:43:25;;;;;;;1.48;0.70;;;-0.80;99.90;;;;;;5074963;28;20554;-56
2021/01/15 06:45:54;;;;;;;2.78;0.90;;;-0.70;99.90;;;;;;5074099;28;20714;-56
2021/01/15 06:48:22;;;;;;;1.33;0.75;;;-0.70;99.90;;;;;;5090331;28;20440;-56
2021/01/15 06:50:50;;;;;;;2.38;0.80;;;-0.80;99.90;;;;;;5081663;28;20835;-57
2021/01/15 06:53:20;;;;;;;1.40;0.80;;;-0.90;99.90;;;;;;5082043;28;20441;-57
2021/01/15 06:55:48;;;;;;;3.58;0.90;;;-0.90;99.90;;;;;;5094809;28;20474;-55
2021/01/15 06:58:23;;;;;;;2.10;0.77;;;-0.90;99.90;;;;;;5084547;28;20855;-56
2021/01/15 07:01:17;;;;;;;1.50;0.80;;;-0.90;99.90;;;;;;5071706;28;20420;-55
2021/01/15 07:04:31;;;;;;;1.63;0.80;;;-0.70;99.90;;;;;;5082946;28;20429;-55
2021/01/15 07:07:11;;;;;;;2.40;0.90;;;-0.80;99.90;;;;;;5022584;28;20434;-54
2021/01/15 07:09:40;;;;;;;1.52;0.80;;;-0.70;99.90;;;;;;5021065;28;20432;-56
2021/01/15 07:12:10;;;;;;;1.70;0.90;;;-0.50;99.90;;;;;;5046756;28;20417;-56
2021/01/15 07:14:48;;;;;;;1.60;0.80;;;-0.40;99.90;;;;;;5087157;28;20779;-55
2021/01/15 07:17:27;;;;;;;1.77;0.80;;;-0.20;99.90;;;;;;5088403;28;20465;-57
2021/01/15 07:20:07;;;;;;;1.30;0.77;;;0.00;99.90;;;;;;5085367;28;20426;-55
2021/01/15 07:22:42;;;;;;;1.30;0.70;;;0.30;99.90;;;;;;5073929;28;20819;-56
2021/01/15 07:25:10;;;;;;;1.25;0.80;;;0.20;99.90;;;;;;5076338;28;20756;-54
2021/01/15 07:27:37;;;;;;;1.50;0.90;;;0.10;99.90;;;;;;5083824;28;20417;-56
2021/01/15 07:30:10;;;;;;;2.10;0.80;;;0.00;99.90;;;;;;5085678;28;20412;-56
2021/01/15 07:32:37;;;;;;;1.38;0.73;;;-0.10;99.90;;;;;;5076975;28;20428;-57
2021/01/15 07:35:04;;;;;;;1.60;0.90;;;-0.30;99.90;;;;;;5088288;28;20409;-56
2021/01/15 07:37:32;;;;;;;1.20;0.80;;;-0.30;99.90;;;;;;5084594;28;20484;-57
2021/01/15 07:40:07;;;;;;;1.88;0.80;;;-0.30;99.90;;;;;;5097923;28;20450;-56
2021/01/15 07:42:51;;;;;;;2.60;0.80;;;-0.20;99.90;;;;;;5078527;28;20697;-57
2021/01/15 07:46:01;;;;;;;2.28;0.90;;;0.00;99.90;;;;;;5085737;28;20767;-54
2021/01/15 07:48:28;;;;;;;2.13;1.10;;;0.00;99.90;;;;;;5090772;28;20432;-58
2021/01/15 07:50:55;;;;;;;1.83;0.82;;;0.30;99.90;;;;;;5081511;28;20436;-57
2021/01/15 07:53:23;;;;;;;3.13;1.00;;;0.20;99.90;;;;;;5080103;28;20433;-57
2021/01/15 07:55:52;;;;;;;3.00;0.93;;;-0.10;99.90;;;;;;5085096;28;20517;-56
2021/01/15 07:58:19;;;;;;;2.10;0.90;;;-0.10;99.90;;;;;;5086556;28;20696;-57
2021/01/15 08:00:46;;;;;;;2.33;1.00;;;0.20;99.90;;;;;;5088000;28;20608;-56
2021/01/15 08:03:14;;;;;;;2.05;0.90;;;0.70;99.90;;;;;;5069222;28;20838;-57
2021/01/15 08:05:43;;;;;;;1.27;0.80;;;0.80;99.90;;;;;;5069087;28;20492;-57
2021/01/15 08:08:17;;;;;;;3.17;1.00;;;1.00;99.90;;;;;;5087517;28;20422;-58
2021/01/15 08:10:45;;;;;;;2.45;0.90;;;1.30;99.90;;;;;;5080286;28;20473;-58
2021/01/15 08:13:27;;;;;;;2.60;0.98;;;1.60;99.90;;;;;;5086444;28;20425;-58
2021/01/15 08:15:54;;;;;;;1.90;0.90;;;1.70;99.90;;;;;;5090296;28;20512;-58
2021/01/15 08:18:22;;;;;;;3.28;1.20;;;1.90;99.90;;;;;;5086862;28;20423;-58
2021/01/15 08:20:51;;;;;;;2.08;1.00;;;1.60;99.90;;;;;;5094282;22;20438;-57
2021/01/15 08:23:24;;;;;;;3.63;1.40;;;1.10;99.90;;;;;;5091407;28;20820;-57
2021/01/15 08:25:53;;;;;;;1.73;1.00;;;0.50;99.90;;;;;;5093363;28;20429;-58
2021/01/15 08:28:20;;;;;;;2.03;1.10;;;0.40;99.90;;;;;;5091194;28;20426;-58
2021/01/15 08:31:03;;;;;;;2.22;1.20;;;0.30;99.90;;;;;;5104135;28;20432;-58
2021/01/15 08:33:30;;;;;;;2.30;1.35;;;0.80;99.90;;;;;;5087175;28;21049;-58
2021/01/15 08:35:59;;;;;;;2.83;1.20;;;1.00;99.90;;;;;;5092067;28;20912;-57
2021/01/15 08:38:30;;;;;;;2.13;1.10;;;0.90;99.90;;;;;;5097883;28;20481;-56
2021/01/15 08:40:56;;;;;;;2.50;1.10;;;1.00;99.90;;;;;;5091490;28;20430;-57
2021/01/15 08:43:24;;;;;;;2.25;1.40;;;1.00;99.90;;;;;;5092284;28;20438;-57
2021/01/15 08:45:51;;;;;;;2.70;1.35;;;0.60;99.90;;;;;;5091929;28;20430;-58
2021/01/15 08:48:19;;;;;;;4.00;1.40;;;0.70;99.90;;;;;;5098944;28;20504;-57
2021/01/15 08:50:46;;;;;;;2.60;1.20;;;0.70;99.90;;;;;;5111249;28;20428;-57
2021/01/15 08:53:16;;;;;;;3.60;1.20;;;0.60;99.90;;;;;;5092513;28;20949;-57
2021/01/15 08:55:44;;;;;;;2.70;1.20;;;0.80;99.90;;;;;;5091585;28;20491;-57
2021/01/15 08:58:10;;;;;;;3.17;1.30;;;1.30;99.90;;;;;;5090700;28;20418;-58
2021/01/15 09:00:37;;;;;;;2.05;1.40;;;1.60;99.90;;;;;;5092596;28;20524;-57
2021/01/15 09:03:05;;;;;;;1.92;1.25;;;1.40;99.90;;;;;;5091631;28;20437;-57
2021/01/15 09:05:33;;;;;;;2.00;1.20;;;1.50;99.90;;;;;;5092065;28;20516;-55
2021/01/15 09:08:03;;;;;;;2.67;1.20;;;1.40;99.90;;;;;;5095587;28;20740;-55
2021/01/15 09:10:30;;;;;;;3.20;1.40;;;1.30;99.90;;;;;;5096818;28;20430;-56
2021/01/15 09:13:04;;;;;;;3.03;1.30;;;1.50;99.90;;;;;;5091359;28;20428;-56
2021/01/15 09:15:30;;;;;;;2.40;1.20;;;1.50;99.90;;;;;;5095700;28;20528;-57
2021/01/15 09:17:59;;;;;;;2.63;1.40;;;1.50;99.90;;;;;;5095765;28;20799;-55
2021/01/15 09:20:26;;;;;;;2.40;1.10;;;1.30;99.90;;;;;;5096151;28;20740;-55
2021/01/15 09:22:53;;;;;;;1.70;1.10;;;1.60;99.90;;;;;;5094863;28;20728;-57
2021/01/15 09:25:20;;;;;;;2.80;1.40;;;1.80;99.90;;;;;;5093873;28;20451;-57
2021/01/15 09:27:47;;;;;;;3.80;1.30;;;2.10;99.90;;;;;;5093808;28;20431;-54
2021/01/15 09:30:15;;;;;;;3.80;1.10;;;2.40;99.90;;;;;;5095328;28;20546;-57
2021/01/15 09:32:43;;;;;;;2.35;1.20;;;2.60;99.90;;;;;;5093558;28;20480;-57
2021/01/15 09:35:11;;;;;;;4.68;1.60;;;2.60;99.90;;;;;;5093021;28;20430;-56
2021/01/15 09:37:37;;;;;;;3.57;1.20;;;2.40;99.90;;;;;;5097910;28;20935;-55
2021/01/15 09:40:06;;;;;;;2.35;1.15;;;2.20;99.90;;;;;;5093750;28;20513;-57
2021/01/15 09:42:34;;;;;;;3.97;1.40;;;2.10;99.90;;;;;;5094787;28;20859;-57
2021/01/15 09:45:00;;;;;;;2.10;1.20;;;2.30;99.90;;;;;;5094613;28;20434;-57
2021/01/15 09:47:30;;;;;;;3.67;1.38;;;1.90;99.90;;;;;;5093460;28;20434;-56
2021/01/15 09:49:56;;;;;;;2.00;1.20;;;2.10;99.90;;;;;;5094208;28;20503;-54
2021/01/15 09:52:22;;;;;;;2.58;1.20;;;2.30;99.90;;;;;;5092151;28;20429;-56
2021/01/15 09:54:48;;;;;;;2.90;1.20;;;2.50;99.90;;;;;;5095124;28;20425;-57
2021/01/15 09:57:15;;;;;;;4.70;1.02;;;2.70;99.90;;;;;;5098591;28;20418;-57
2021/01/15 09:59:42;;;;;;;2.60;1.30;;;2.90;99.90;;;;;;5093036;28;20429;-57
2021/01/15 10:02:08;;;;;;;2.20;1.30;;;3.00;99.90;;;;;;5090734;28;20425;-57
2021/01/15 10:04:34;;;;;;;2.40;1.30;;;2.70;99.90;;;;;;5098049;28;20521;-56
2021/01/15 10:07:01;;;;;;;2.03;1.08;;;2.70;99.90;;;;;;5095088;28;20428;-58
2021/01/15 10:09:27;;;;;;;2.33;1.13;;;2.60;99.90;;;;;;5095753;28;20448;-58
2021/01/15 10:11:53;;;;;;;2.90;1.37;;;2.70;99.90;;;;;;5095811;28;20455;-57
2021/01/15 10:14:20;;;;;;;3.90;1.23;;;2.80;99.90;;;;;;5098643;28;20523;-55
2021/01/15 10:16:49;;;;;;;3.30;1.60;;;2.60;99.90;;;;;;5105256;28;20421;-58
2021/01/15 10:19:16;;;;;;;2.10;1.30;;;2.20;99.90;;;;;;5095081;28;20430;-55
2021/01/15 10:21:43;;;;;;;2.72;1.10;;;2.10;99.90;;;;;;5082366;28;20436;-56
2021/01/15 10:24:10;;;;;;;2.58;1.27;;;2.00;99.90;;;;;;5090509;28;20434;-55
2021/01/15 10:26:38;;;;;;;3.00;1.30;;;2.30;99.90;;;;;;5093298;28;20418;-56
2021/01/15 10:29:06;;;;;;;3.08;1.70;;;2.40;99.90;;;;;;5098080;28;20426;-54
2021/01/15 10:31:34;;;;;;;3.30;1.40;;;2.30;99.90;;;;;;5099500;28;21084;-56
2021/01/15 10:34:02;;;;;;;4.03;1.50;;;2.10;99.90;;;;;;5100149;28;20708;-55
2021/01/15 10:36:30;;;;;;;2.80;1.60;;;2.30;99.90;;;;;;5092818;28;20804;-58
2021/01/15 10:38:56;;;;;;;2.50;1.17;;;2.50;99.90;;;;;;5100148;28;20465;-58
2021/01/15 10:41:42;;;;;;;3.00;1.20;;;2.60;99.90;;;;;;5092575;28;20722;-59
2021/01/15 10:44:09;;;;;;;4.23;1.90;;;2.80;99.90;;;;;;5090635;28;20434;-60
2021/01/15 10:46:37;;;;;;;2.40;1.33;;;2.70;99.90;;;;;;5091603;28;20426;-60
2021/01/15 10:49:05;;;;;;;2.75;1.73;;;2.80;99.90;;;;;;5091651;28;20457;-60
2021/01/15 10:51:32;;;;;;;2.75;1.40;;;2.70;99.90;;;;;;5092414;28;20533;-60
2021/01/15 10:53:59;;;;;;;3.30;1.30;;;2.80;99.90;;;;;;5091494;28;20653;-60
2021/01/15 10:56:25;;;;;;;3.45;1.98;;;3.00;99.90;;;;;;5090723;28;20418;-59
2021/01/15 10:58:52;;;;;;;2.40;1.50;;;3.10;99.90;;;;;;5088855;28;20425;-60
2021/01/15 11:01:18;;;;;;;3.80;1.70;;;2.80;99.90;;;;;;5089282;28;20421;-60
2021/01/15 11:03:45;;;;;;;2.25;1.40;;;2.70;99.90;;;;;;5096884;28;20436;-59
2021/01/15 11:06:19;;;;;;;3.55;1.50;;;2.70;99.90;;;;;;5089486;28;20429;-58
2021/01/15 11:08:46;;;;;;;3.15;1.50;;;2.90;99.90;;;;;;5093987;28;20428;-60
2021/01/15 11:11:12;;;;;;;3.30;1.60;;;3.00;99.90;;;;;;5092256;28;20532;-59
2021/01/15 11:13:38;;;;;;;3.78;2.10;;;3.00;99.90;;;;;;5100647;28;20483;-58
2021/01/15 11:16:11;;;;;;;3.50;1.50;;;2.70;99.90;;;;;;5093669;28;20882;-58
2021/01/15 11:18:38;;;;;;;4.30;1.50;;;2.60;99.90;;;;;;5095510;28;20429;-59
2021/01/15 11:21:04;;;;;;;3.85;1.50;;;3.00;99.90;;;;;;5092110;28;20424;-58
2021/01/15 11:23:32;;;;;;;3.10;1.40;;;3.10;99.90;;;;;;5111380;28;20859;-59
2021/01/15 11:25:59;;;;;;;4.60;2.28;;;3.30;99.90;;;;;;5096879;28;20413;-60
2021/01/15 11:28:25;;;;;;;4.90;1.60;;;3.40;99.90;;;;;;5091052;28;20430;-60
2021/01/15 11:30:52;;;;;;;3.13;1.40;;;3.50;99.90;;;;;;5095130;28;20513;-59
2021/01/15 11:33:18;;;;;;;3.30;1.80;;;3.60;99.90;;;;;;5107165;28;20422;-59
2021/01/15 11:35:44;;;;;;;3.85;1.60;;;3.70;99.90;;;;;;5096418;28;20450;-59
2021/01/15 11:38:10;;;;;;;2.20;1.50;;;3.50;99.90;;;;;;5091509;28;20501;-60
2021/01/15 11:40:38;;;;;;;2.40;1.30;;;3.40;99.90;;;;;;5110266;28;20543;-59
2021/01/15 11:43:04;;;;;;;3.60;1.60;;;3.70;99.90;;;;;;5099661;28;20492;-60
2021/01/15 11:45:30;;;;;;;3.38;2.00;;;3.30;99.90;;;;;;5101558;28;20432;-59
2021/01/15 11:47:57;;;;;;;3.72;1.80;;;3.10;99.90;;;;;;5096654;28;20997;-59
2021/01/15 11:50:24;;;;;;;6.00;1.90;;;3.00;99.90;;;;;;5090475;28;20432;-59
2021/01/15 11:52:54;;;;;;;3.97;1.87;;;3.20;99.90;;;;;;5089507;28;21236;-59
2021/01/15 11:55:21;;;;;;;2.75;1.38;;;3.50;99.90;;;;;;5094148;28;20486;-59
2021/01/15 11:57:50;;;;;;;5.03;1.80;;;3.60;99.90;;;;;;5110351;28;20519;-60
2021/01/15 12:00:18;;;;;;;2.90;1.58;;;3.70;99.90;;;;;;5104841;28;20457;-59
2021/01/15 12:02:44;;;;;;;5.10;1.77;;;3.90;99.90;;;;;;5089537;28;20508;-59
2021/01/15 12:05:12;;;;;;;7.10;2.25;;;3.70;99.90;;;;;;5104208;28;20437;-60
2021/01/15 12:07:38;;;;;;;5.60;1.85;;;3.60;99.90;;;;;;5094740;28;20976;-59
2021/01/15 12:10:06;;;;;;;2.83;1.40;;;3.60;99.90;;;;;;5097311;28;20534;-59
2021/01/15 12:12:37;;;;;;;2.93;1.30;;;3.60;99.90;;;;;;5092405;28;20762;-60
2021/01/15 12:15:06;;;;;;;2.30;1.40;;;3.60;99.90;;;;;;5093165;28;20523;-60
2021/01/15 12:17:32;;;;;;;2.40;1.30;;;3.90;99.90;;;;;;5090457;28;20719;-60
2021/01/15 12:19:59;;;;;;;2.80;1.30;;;3.80;99.90;;;;;;5092412;28;20422;-60
2021/01/15 12:22:25;;;;;;;3.60;1.30;;;3.80;99.90;;;;;;5088561;28;20848;-61
2021/01/15 12:24:51;;;;;;;4.07;1.40;;;3.80;99.90;;;;;;5089763;28;20773;-60
2021/01/15 12:27:18;;;;;;;2.85;1.50;;;3.60;99.90;;;;;;5089419;28;20425;-60
2021/01/15 12:29:44;;;;;;;2.80;1.40;;;3.50;99.90;;;;;;5089832;28;20567;-59
2021/01/15 12:32:12;;;;;;;3.25;1.35;;;3.50;99.90;;;;;;5090120;28;20939;-59
2021/01/15 12:34:38;;;;;;;3.15;1.40;;;3.50;99.90;;;;;;5092662;28;20423;-60
2021/01/15 12:37:04;;;;;;;2.20;1.30;;;3.30;99.90;;;;;;5109372;28;20414;-60
2021/01/15 12:39:32;;;;;;;3.00;1.60;;;3.40;99.90;;;;;;5089912;28;20433;-60
2021/01/15 12:41:58;;;;;;;2.70;1.80;;;3.60;99.90;;;;;;5086545;28;20428;-60
2021/01/15 12:44:24;;;;;;;2.90;1.50;;;3.40;99.90;;;;;;5089807;28;20472;-60
2021/01/15 12:46:51;;;;;;;2.70;1.40;;;3.40;99.90;;;;;;5088591;28;20430;-60
2021/01/15 12:49:18;;;;;;;2.70;1.50;;;3.50;99.90;;;;;;5087769;28;20465;-60
2021/01/15 12:51:44;;;;;;;2.00;1.30;;;3.40;99.90;;;;;;5095834;28;20425;-59
2021/01/15 12:54:10;;;;;;;3.30;2.40;;;3.50;99.90;;;;;;5094660;28;20426;-59
2021/01/15 12:56:38;;;;;;;2.20;1.20;;;3.40;99.90;;;;;;5094355;28;20413;-59
2021/01/15 12:59:05;;;;;;;2.60;1.13;;;3.20;99.90;;;;;;5094356;28;20429;-60
2021/01/15 13:01:38;;;;;;;2.80;1.30;;;3.00;99.90;;;;;;5115047;28;20730;-60
2021/01/15 13:04:05;;;;;;;2.95;1.45;;;3.00;99.90;;;;;;5114148;28;20468;-60